Time;durP1;ratioP1;P1;durP2;ratioP2;P2;SDS_P1;SDS_P2;PMS_P1;PMS_P2;Temp;Humidity;BMP_temperature;BMP_pressure;BME280_temperature;BME280_humidity;BME280_pressure;Samples;Min_cycle;Max_cycle;Signal;HPM_P1;HPM_P2
2021/04/18 00:04:55;;;;;;;12.95;7.00;;;6.50;99.90;;;;;;12385052;28;20170;-79
2021/04/18 00:10:56;;;;;;;13.07;6.75;;;6.40;99.90;;;;;;12378700;28;20100;-79
2021/04/18 00:16:58;;;;;;;10.65;6.30;;;6.30;99.90;;;;;;12380469;28;20205;-79
2021/04/18 00:23:00;;;;;;;11.90;6.32;;;6.30;99.90;;;;;;12384904;28;20046;-79
2021/04/18 00:29:01;;;;;;;12.02;6.82;;;6.20;99.90;;;;;;12380891;28;20096;-79
2021/04/18 00:35:04;;;;;;;12.50;5.93;;;6.10;99.90;;;;;;12391044;28;20080;-79
2021/04/18 00:41:05;;;;;;;12.88;6.22;;;6.20;99.90;;;;;;12388637;28;20108;-80
2021/04/18 00:47:06;;;;;;;11.55;6.28;;;6.00;99.90;;;;;;12395489;28;20136;-79
2021/04/18 00:53:09;;;;;;;16.88;6.82;;;5.80;99.90;;;;;;12391844;28;20046;-79
2021/04/18 00:59:10;;;;;;;11.82;6.68;;;5.90;99.90;;;;;;12411711;28;20462;-79
2021/04/18 01:05:12;;;;;;;11.82;7.03;;;5.80;99.90;;;;;;12396251;28;20765;-79
2021/04/18 01:11:13;;;;;;;11.57;6.35;;;5.70;99.90;;;;;;12398990;28;20074;-79
2021/04/18 01:17:15;;;;;;;10.02;5.90;;;5.60;99.90;;;;;;12388644;28;20046;-79
2021/04/18 01:23:16;;;;;;;12.27;6.90;;;5.50;99.90;;;;;;12393068;28;20071;-79
2021/04/18 01:29:18;;;;;;;16.45;6.75;;;5.50;99.90;;;;;;12392460;28;20090;-78
2021/04/18 01:35:21;;;;;;;10.85;6.82;;;5.30;99.90;;;;;;12414660;28;20112;-79
2021/04/18 01:41:22;;;;;;;13.93;6.90;;;5.30;99.90;;;;;;12393011;28;20184;-79
2021/04/18 01:47:23;;;;;;;11.38;7.00;;;5.10;99.90;;;;;;12395094;28;20077;-79
2021/04/18 01:53:25;;;;;;;13.45;6.97;;;5.00;99.90;;;;;;12392360;28;20077;-79
2021/04/18 01:59:26;;;;;;;12.02;6.43;;;5.10;99.90;;;;;;12393130;28;20080;-79
2021/04/18 02:05:33;;;;;;;12.65;7.38;;;5.00;99.90;;;;;;12410221;28;20046;-79
2021/04/18 02:11:38;;;;;;;11.38;6.72;;;4.90;99.90;;;;;;12389635;28;20047;-79
2021/04/18 02:17:40;;;;;;;13.90;6.85;;;4.90;99.90;;;;;;12408198;28;20097;-79
2021/04/18 02:23:41;;;;;;;14.18;6.75;;;5.00;99.90;;;;;;12381566;28;20038;-79
2021/04/18 02:29:43;;;;;;;15.38;7.30;;;5.10;99.90;;;;;;12395082;28;20053;-79
2021/04/18 02:35:44;;;;;;;13.65;7.35;;;5.20;99.90;;;;;;12395745;28;20102;-79
2021/04/18 02:41:46;;;;;;;13.85;7.00;;;5.30;99.90;;;;;;12389231;28;20035;-79
2021/04/18 02:47:47;;;;;;;12.00;7.28;;;5.40;99.90;;;;;;12392793;28;20562;-79
2021/04/18 02:53:48;;;;;;;12.40;6.82;;;5.50;99.90;;;;;;12405335;28;20050;-79
2021/04/18 02:59:49;;;;;;;15.18;6.60;;;5.60;99.90;;;;;;12395402;28;20046;-79
2021/04/18 03:05:51;;;;;;;11.80;6.38;;;5.50;99.90;;;;;;12390148;28;20105;-79
2021/04/18 03:11:52;;;;;;;15.02;6.38;;;5.60;99.90;;;;;;12392491;28;20046;-79
2021/04/18 03:17:54;;;;;;;13.23;6.38;;;5.80;99.90;;;;;;12386955;28;20485;-79
2021/04/18 03:23:55;;;;;;;11.52;6.22;;;6.00;99.90;;;;;;12391430;28;20417;-79
2021/04/18 03:29:57;;;;;;;12.27;6.30;;;5.90;99.90;;;;;;12389217;28;20508;-79
2021/04/18 03:35:58;;;;;;;11.73;6.53;;;5.80;99.90;;;;;;12386628;28;20087;-79
2021/04/18 03:42:00;;;;;;;15.68;6.97;;;5.70;99.90;;;;;;12429753;28;21268;-79
2021/04/18 03:48:01;;;;;;;13.52;7.30;;;5.90;99.90;;;;;;12437709;28;20065;-79
2021/04/18 03:54:03;;;;;;;11.43;6.78;;;5.70;99.90;;;;;;12430645;28;20030;-79
2021/04/18 04:00:06;;;;;;;15.00;7.30;;;5.80;99.90;;;;;;12419019;28;20043;-79
2021/04/18 04:06:08;;;;;;;11.80;7.22;;;5.70;99.90;;;;;;12382397;28;20180;-79
2021/04/18 04:12:09;;;;;;;12.90;6.45;;;6.00;99.90;;;;;;12379662;28;20061;-79
2021/04/18 04:18:11;;;;;;;12.82;7.13;;;5.90;99.90;;;;;;12389771;28;20084;-79
2021/04/18 04:24:12;;;;;;;15.60;7.18;;;6.20;99.90;;;;;;12376818;28;20992;-79
2021/04/18 04:30:14;;;;;;;12.73;6.57;;;6.20;99.90;;;;;;12386497;28;20561;-79
2021/04/18 04:36:15;;;;;;;13.90;6.75;;;6.00;99.90;;;;;;12384851;28;20443;-79
2021/04/18 04:42:17;;;;;;;11.90;6.45;;;5.90;99.90;;;;;;12380796;28;20138;-79
2021/04/18 04:48:18;;;;;;;12.77;6.47;;;5.90;99.90;;;;;;12386846;28;20081;-79
2021/04/18 04:54:20;;;;;;;12.25;6.55;;;6.00;99.90;;;;;;12382857;28;20399;-80
2021/04/18 05:00:22;;;;;;;11.77;6.68;;;5.90;99.90;;;;;;12386327;28;20070;-79
2021/04/18 05:06:23;;;;;;;12.82;7.22;;;6.10;99.90;;;;;;12381132;28;20042;-79
2021/04/18 05:12:24;;;;;;;15.35;6.72;;;6.10;99.90;;;;;;12381597;28;20133;-79
2021/04/18 05:18:25;;;;;;;12.45;6.82;;;5.90;99.90;;;;;;12378664;28;20133;-79
2021/04/18 05:24:27;;;;;;;12.40;6.85;;;6.00;99.90;;;;;;12385696;28;20056;-79
2021/04/18 05:30:29;;;;;;;14.05;6.55;;;6.10;99.90;;;;;;12401354;28;20042;-79
2021/04/18 05:36:30;;;;;;;12.85;6.53;;;6.30;99.90;;;;;;12391621;28;20053;-80
2021/04/18 05:42:32;;;;;;;10.43;5.65;;;6.70;99.90;;;;;;12389199;28;20145;-79
2021/04/18 05:48:34;;;;;;;8.77;5.68;;;7.20;99.90;;;;;;12387428;28;20074;-80
2021/04/18 05:54:35;;;;;;;9.65;5.78;;;8.00;99.90;;;;;;12385520;28;20043;-80
2021/04/18 06:00:36;;;;;;;11.80;5.55;;;8.50;99.90;;;;;;12383599;28;20045;-80
2021/04/18 06:06:38;;;;;;;12.45;6.75;;;8.50;99.90;;;;;;12385258;28;20110;-80
2021/04/18 06:12:39;;;;;;;10.05;5.90;;;8.40;99.90;;;;;;12386498;28;20179;-80
2021/04/18 06:18:40;;;;;;;11.25;5.93;;;8.40;99.90;;;;;;12383439;28;20093;-80
2021/04/18 06:24:42;;;;;;;10.88;6.18;;;8.60;99.90;;;;;;12403074;28;20087;-79
2021/04/18 06:30:43;;;;;;;13.45;6.10;;;8.70;99.90;;;;;;12392887;28;20042;-79
2021/04/18 06:36:44;;;;;;;11.25;5.93;;;8.90;99.90;;;;;;12403701;28;20042;-80
2021/04/18 06:42:53;;;;;;;11.27;6.35;;;8.90;99.90;;;;;;12391560;28;20147;-80
2021/04/18 06:48:54;;;;;;;12.23;5.70;;;9.10;99.90;;;;;;12387392;28;20145;-79
2021/04/18 06:54:56;;;;;;;11.18;5.80;;;8.80;99.90;;;;;;12382478;28;20494;-80
2021/04/18 07:00:58;;;;;;;13.63;6.38;;;8.60;99.90;;;;;;12382077;28;20141;-80
2021/04/18 07:07:00;;;;;;;13.18;6.07;;;8.70;99.90;;;;;;12382975;28;20092;-80
2021/04/18 07:13:08;;;;;;;13.77;6.00;;;8.70;99.90;;;;;;12391678;28;20042;-80
2021/04/18 07:19:26;;;;;;;13.18;6.05;;;8.90;99.90;;;;;;12388170;28;20082;-80
2021/04/18 07:25:32;;;;;;;12.77;6.05;;;9.00;99.90;;;;;;12404651;28;20049;-80
2021/04/18 07:31:34;;;;;;;13.73;6.40;;;9.10;99.90;;;;;;12382177;28;20062;-80
2021/04/18 07:37:35;;;;;;;12.57;6.60;;;9.40;99.90;;;;;;12382103;28;20050;-80
2021/04/18 07:43:37;;;;;;;15.55;6.45;;;9.50;99.90;;;;;;12394630;28;20130;-80
2021/04/18 07:49:41;;;;;;;11.32;5.85;;;9.60;99.90;;;;;;12379539;28;20407;-80
2021/04/18 07:55:44;;;;;;;15.18;6.28;;;9.40;99.90;;;;;;12381743;28;20054;-80
2021/04/18 08:01:46;;;;;;;11.73;5.97;;;9.80;99.90;;;;;;12379947;28;20169;-80
2021/04/18 08:08:13;;;;;;;14.20;6.95;;;10.10;99.90;;;;;;12386297;28;20058;-80
2021/04/18 08:14:17;;;;;;;11.20;6.20;;;10.40;99.90;;;;;;12390402;28;20609;-80
2021/04/18 08:20:34;;;;;;;11.10;6.10;;;10.60;99.90;;;;;;12378751;28;20816;-80
2021/04/18 08:26:36;;;;;;;11.57;5.95;;;10.90;99.90;;;;;;12397919;28;20057;-80
2021/04/18 08:32:50;;;;;;;11.27;6.65;;;11.00;99.90;;;;;;12377452;28;20563;-80
2021/04/18 08:39:04;;;;;;;11.27;6.07;;;11.10;99.90;;;;;;12385593;28;20049;-80
2021/04/18 08:45:06;;;;;;;12.65;6.93;;;11.10;99.90;;;;;;12402958;28;20632;-80
2021/04/18 08:51:09;;;;;;;11.88;6.53;;;11.30;99.90;;;;;;12387698;28;20042;-80
2021/04/18 08:57:22;;;;;;;15.93;6.78;;;11.70;99.90;;;;;;12384484;28;20478;-80
2021/04/18 09:03:23;;;;;;;12.98;7.25;;;11.80;99.90;;;;;;12392978;28;20080;-80
2021/04/18 09:09:25;;;;;;;13.13;6.30;;;11.90;99.90;;;;;;12397520;28;20050;-81
2021/04/18 09:15:30;;;;;;;15.90;6.70;;;12.30;99.90;;;;;;12386608;28;20686;-81
2021/04/18 09:21:32;;;;;;;11.32;6.40;;;12.40;99.90;;;;;;12393048;28;20050;-81
2021/04/18 09:27:39;;;;;;;12.48;6.72;;;12.60;99.90;;;;;;12398129;28;20100;-81
2021/04/18 09:33:41;;;;;;;12.43;6.88;;;13.30;99.90;;;;;;12391404;28;20069;-81
2021/04/18 09:39:47;;;;;;;10.38;7.00;;;13.60;99.90;;;;;;12396152;28;20098;-81
2021/04/18 09:45:59;;;;;;;15.63;6.95;;;13.60;99.90;;;;;;12396985;28;20133;-81
2021/04/18 09:52:02;;;;;;;12.00;6.30;;;13.70;99.90;;;;;;12400187;28;20042;-81
2021/04/18 09:58:03;;;;;;;16.33;6.45;;;13.30;99.90;;;;;;12398193;28;20065;-81
2021/04/18 10:04:24;;;;;;;11.57;6.57;;;12.70;99.90;;;;;;12391566;28;20119;-81
2021/04/18 10:10:31;;;;;;;12.07;6.15;;;12.90;99.90;;;;;;12391923;28;20050;-81
2021/04/18 10:16:36;;;;;;;11.98;6.45;;;12.60;99.90;;;;;;12389439;28;20097;-81
2021/04/18 10:23:01;;;;;;;13.23;6.50;;;12.80;99.90;;;;;;12398928;28;20061;-80
2021/04/18 10:29:02;;;;;;;10.77;5.30;;;13.10;99.90;;;;;;12387910;28;20133;-81
2021/04/18 10:35:04;;;;;;;8.38;5.50;;;13.10;99.90;;;;;;12384108;28;20527;-81
2021/04/18 10:41:06;;;;;;;10.80;5.47;;;13.60;99.90;;;;;;12386874;28;21671;-81
2021/04/18 10:47:16;;;;;;;11.02;6.70;;;14.10;99.90;;;;;;12381122;28;20089;-81
2021/04/18 10:53:19;;;;;;;10.98;6.53;;;14.30;99.90;;;;;;12385330;28;20034;-81
2021/04/18 10:59:40;;;;;;;10.45;6.50;;;14.50;99.90;;;;;;12390228;28;20057;-81
2021/04/18 11:05:41;;;;;;;8.77;5.93;;;14.30;99.90;;;;;;12407947;28;20120;-82
2021/04/18 11:11:43;;;;;;;14.68;7.20;;;14.50;99.90;;;;;;12408942;28;20033;-82
2021/04/18 11:17:44;;;;;;;11.48;6.75;;;14.50;99.90;;;;;;12392348;28;20130;-81
2021/04/18 11:23:46;;;;;;;12.27;6.78;;;14.80;99.90;;;;;;12384211;28;20124;-81
2021/04/18 11:29:48;;;;;;;14.82;6.95;;;15.00;99.90;;;;;;12411676;28;20053;-82
2021/04/18 11:35:50;;;;;;;12.48;7.10;;;15.30;99.90;;;;;;12381827;28;20046;-81
2021/04/18 11:41:51;;;;;;;10.52;6.53;;;14.90;99.90;;;;;;12380954;28;20133;-81
2021/04/18 11:47:53;;;;;;;11.18;5.97;;;14.40;99.90;;;;;;12383212;28;20046;-81
2021/04/18 11:53:54;;;;;;;10.73;6.15;;;14.40;99.90;;;;;;12389216;28;20047;-82
2021/04/18 11:59:56;;;;;;;10.65;6.05;;;15.30;99.90;;;;;;12393211;28;20106;-81
2021/04/18 12:05:58;;;;;;;10.70;6.10;;;15.70;99.90;;;;;;12367295;28;20043;-81
2021/04/18 12:12:01;;;;;;;14.93;6.88;;;15.70;99.90;;;;;;12384441;28;20070;-81
2021/04/18 12:18:02;;;;;;;9.13;5.68;;;14.90;99.90;;;;;;12387427;28;20053;-81
2021/04/18 12:24:05;;;;;;;11.02;5.88;;;14.70;99.90;;;;;;12385924;28;20268;-81
2021/04/18 12:30:09;;;;;;;12.48;6.63;;;13.90;99.90;;;;;;12383136;28;20050;-81
2021/04/18 12:36:10;;;;;;;10.13;6.10;;;14.60;99.90;;;;;;12391740;28;20113;-81
2021/04/18 12:42:12;;;;;;;9.85;6.35;;;15.70;99.90;;;;;;12394046;28;20130;-82
2021/04/18 12:48:13;;;;;;;14.18;7.07;;;16.80;99.90;;;;;;12411873;28;20107;-81
2021/04/18 12:54:15;;;;;;;10.98;6.60;;;16.50;99.90;;;;;;12389980;28;20049;-81
2021/04/18 13:00:17;;;;;;;9.07;6.20;;;17.00;99.90;;;;;;12402832;28;20125;-81
2021/04/18 13:06:19;;;;;;;11.40;6.72;;;17.80;99.90;;;;;;12394018;28;20127;-81
2021/04/18 13:12:20;;;;;;;11.10;7.00;;;16.90;99.90;;;;;;12388285;28;20042;-81
2021/04/18 13:18:22;;;;;;;9.15;6.30;;;15.70;99.90;;;;;;12393272;28;20054;-81
2021/04/18 13:24:24;;;;;;;10.23;6.70;;;15.50;99.90;;;;;;12403742;28;20855;-81
2021/04/18 13:30:28;;;;;;;10.25;6.20;;;15.50;99.90;;;;;;12385416;28;20073;-81
2021/04/18 13:36:29;;;;;;;9.48;6.28;;;15.80;99.90;;;;;;12379157;28;20146;-81
2021/04/18 13:42:31;;;;;;;9.88;5.72;;;17.10;99.90;;;;;;12379380;28;20054;-82
2021/04/18 13:48:32;;;;;;;9.35;5.95;;;17.10;99.90;;;;;;12434520;28;20038;-82
2021/04/18 13:54:33;;;;;;;10.55;5.95;;;16.90;99.90;;;;;;12432734;28;20053;-81
2021/04/18 14:00:35;;;;;;;11.32;6.07;;;16.80;99.90;;;;;;12388126;28;20163;-81
2021/04/18 14:06:36;;;;;;;10.45;6.45;;;17.00;99.90;;;;;;12380632;28;20038;-81
2021/04/18 14:12:39;;;;;;;10.63;6.30;;;17.60;99.90;;;;;;12378484;28;20137;-81
2021/04/18 14:18:40;;;;;;;11.68;6.15;;;17.90;99.90;;;;;;12401197;28;20086;-82
2021/04/18 14:24:42;;;;;;;12.13;5.55;;;17.70;99.90;;;;;;12382928;28;20046;-81
2021/04/18 14:30:43;;;;;;;13.55;6.75;;;16.50;99.90;;;;;;12382121;28;20130;-81
2021/04/18 14:36:44;;;;;;;11.05;6.35;;;16.30;99.90;;;;;;12383380;28;20475;-81
2021/04/18 14:42:46;;;;;;;10.65;6.70;;;16.10;99.90;;;;;;12384863;28;20194;-81
2021/04/18 14:48:47;;;;;;;10.85;6.00;;;16.00;99.90;;;;;;12393566;28;20128;-82
2021/04/18 14:54:49;;;;;;;11.48;6.03;;;16.20;99.90;;;;;;12379212;28;20117;-81
2021/04/18 15:00:51;;;;;;;10.27;5.78;;;16.30;99.90;;;;;;12384874;28;20792;-78
2021/04/18 15:06:53;;;;;;;12.93;6.82;;;16.40;99.90;;;;;;12389678;28;20050;-81
2021/04/18 15:12:55;;;;;;;10.68;5.95;;;16.30;99.90;;;;;;12391900;28;20159;-81
2021/04/18 15:18:56;;;;;;;10.30;5.68;;;16.60;99.90;;;;;;12381110;28;21205;-80
2021/04/18 15:24:57;;;;;;;7.25;5.00;;;16.70;99.90;;;;;;12399827;28;20180;-81
2021/04/18 15:30:59;;;;;;;10.40;5.35;;;16.40;99.90;;;;;;12388473;28;20049;-81
2021/04/18 15:37:00;;;;;;;9.95;5.50;;;16.90;99.90;;;;;;12375613;28;20042;-81
2021/04/18 15:43:02;;;;;;;9.80;5.85;;;17.00;99.90;;;;;;12378894;28;20753;-81
2021/04/18 15:49:07;;;;;;;9.18;5.43;;;16.50;99.90;;;;;;12370058;28;20054;-81
2021/04/18 15:55:09;;;;;;;9.07;5.40;;;16.10;99.90;;;;;;12370442;28;20045;-81
2021/04/18 16:01:11;;;;;;;9.32;6.15;;;16.00;99.90;;;;;;12373984;28;20084;-81
2021/04/18 16:07:13;;;;;;;12.13;6.25;;;16.20;99.90;;;;;;12384668;28;20109;-81
2021/04/18 16:13:14;;;;;;;13.70;5.88;;;16.20;99.90;;;;;;12381513;28;20560;-81
2021/04/18 16:19:19;;;;;;;10.57;5.32;;;16.00;99.90;;;;;;12387791;28;20560;-81
2021/04/18 16:25:21;;;;;;;12.45;5.80;;;16.10;99.90;;;;;;12374733;28;20054;-81
2021/04/18 16:31:23;;;;;;;8.15;5.25;;;16.00;99.90;;;;;;12378982;28;20444;-81
2021/04/18 16:37:24;;;;;;;9.13;5.50;;;15.90;99.90;;;;;;12377237;28;20042;-81
2021/04/18 16:43:26;;;;;;;9.88;5.00;;;15.80;99.90;;;;;;12385587;28;20137;-81
2021/04/18 16:49:27;;;;;;;13.30;4.97;;;15.60;99.90;;;;;;12390051;28;20054;-81
2021/04/18 16:55:28;;;;;;;10.52;5.63;;;15.60;99.90;;;;;;12387939;28;20138;-81
2021/04/18 17:01:29;;;;;;;8.68;5.32;;;15.40;99.90;;;;;;12378256;28;20046;-81
2021/04/18 17:07:32;;;;;;;8.32;5.55;;;15.20;99.90;;;;;;12381090;28;20057;-81
2021/04/18 17:13:33;;;;;;;9.27;5.72;;;15.10;99.90;;;;;;12373334;28;20062;-81
2021/04/18 17:19:35;;;;;;;6.22;3.40;;;14.40;99.90;;;;;;12381101;28;20145;-80
2021/04/18 17:25:38;;;;;;;4.63;3.08;;;13.10;99.90;;;;;;12384765;28;20050;-80
2021/04/18 17:31:39;;;;;;;8.15;3.47;;;11.80;99.90;;;;;;12388598;28;20042;-80
2021/04/18 17:37:41;;;;;;;7.22;4.43;;;11.20;99.90;;;;;;12394680;28;20042;-81
2021/04/18 17:43:43;;;;;;;9.60;5.60;;;10.70;99.90;;;;;;12388541;28;20176;-81
2021/04/18 17:49:44;;;;;;;8.43;4.65;;;10.70;99.90;;;;;;12383893;28;20188;-82
2021/04/18 17:55:45;;;;;;;7.57;5.38;;;10.70;99.90;;;;;;12387428;28;20141;-82
2021/04/18 18:01:48;;;;;;;7.28;5.50;;;10.70;99.90;;;;;;12387679;28;20077;-82
2021/04/18 18:07:51;;;;;;;8.25;5.63;;;10.80;99.90;;;;;;12384024;28;20037;-82
2021/04/18 18:13:53;;;;;;;6.95;5.53;;;11.10;99.90;;;;;;12385995;28;20039;-82
2021/04/18 18:19:54;;;;;;;8.63;5.93;;;11.10;99.90;;;;;;12403481;28;20082;-83
2021/04/18 18:25:55;;;;;;;8.50;6.50;;;11.00;99.90;;;;;;12383592;28;20093;-83
2021/04/18 18:31:56;;;;;;;12.07;5.97;;;11.00;99.90;;;;;;12388803;28;20042;-82
2021/04/18 18:37:58;;;;;;;9.38;5.85;;;11.10;99.90;;;;;;12389354;28;20713;-83
2021/04/18 18:44:00;;;;;;;11.15;7.07;;;11.10;99.90;;;;;;12391076;28;20038;-83
2021/04/18 18:50:03;;;;;;;16.48;11.18;;;11.00;99.90;;;;;;12392388;28;20077;-82
2021/04/18 18:56:05;;;;;;;11.77;8.13;;;10.80;99.90;;;;;;12386739;28;20053;-82
2021/04/18 19:02:08;;;;;;;10.98;7.82;;;10.60;99.90;;;;;;12392724;28;20074;-82
2021/04/18 19:08:10;;;;;;;9.95;7.85;;;10.40;99.90;;;;;;12411159;28;20047;-83
2021/04/18 19:14:14;;;;;;;11.07;8.27;;;10.20;99.90;;;;;;12411677;28;20111;-82
2021/04/18 19:20:15;;;;;;;11.57;8.63;;;10.10;99.90;;;;;;12387710;28;20066;-82
2021/04/18 19:26:17;;;;;;;13.98;8.85;;;10.10;99.90;;;;;;12388705;28;20153;-82
2021/04/18 19:32:18;;;;;;;11.25;8.93;;;10.10;99.90;;;;;;12388907;28;20057;-82
2021/04/18 19:38:20;;;;;;;11.95;9.07;;;10.00;99.90;;;;;;12391664;28;20924;-83
2021/04/18 19:44:21;;;;;;;12.88;9.45;;;9.90;99.90;;;;;;12386721;28;20129;-82
2021/04/18 19:50:24;;;;;;;11.80;9.82;;;9.80;99.90;;;;;;12408342;28;20498;-82
2021/04/18 19:56:25;;;;;;;12.10;9.70;;;10.00;99.90;;;;;;12394097;28;20053;-82
2021/04/18 20:02:28;;;;;;;13.85;10.07;;;10.20;99.90;;;;;;12399270;28;20058;-82
2021/04/18 20:08:29;;;;;;;12.02;9.13;;;10.00;99.90;;;;;;12397046;28;20050;-82
2021/04/18 20:14:31;;;;;;;12.85;9.68;;;9.90;99.90;;;;;;12389107;28;20124;-82
2021/04/18 20:20:32;;;;;;;14.07;9.82;;;9.80;99.90;;;;;;12391351;28;20102;-82
2021/04/18 20:26:34;;;;;;;14.75;10.80;;;9.70;99.90;;;;;;12392146;28;20503;-82
2021/04/18 20:32:50;;;;;;;16.65;12.75;;;9.60;99.90;;;;;;12407199;28;20053;-81
2021/04/18 20:38:52;;;;;;;15.52;11.65;;;9.60;99.90;;;;;;12390725;28;20050;-82
2021/04/18 20:44:53;;;;;;;22.58;13.52;;;9.70;99.90;;;;;;12384995;28;20069;-82
2021/04/18 20:50:55;;;;;;;16.83;11.48;;;9.80;99.90;;;;;;12387356;28;20130;-82
2021/04/18 20:56:56;;;;;;;15.80;12.80;;;9.70;99.90;;;;;;12401624;28;20495;-82
2021/04/18 21:02:58;;;;;;;17.83;13.50;;;9.50;99.90;;;;;;12448659;28;20101;-83
2021/04/18 21:09:00;;;;;;;16.02;13.35;;;9.60;99.90;;;;;;12444205;28;20038;-83
2021/04/18 21:15:01;;;;;;;18.75;13.25;;;9.50;99.90;;;;;;12413494;28;20101;-82
2021/04/18 21:21:03;;;;;;;16.02;13.05;;;9.50;99.90;;;;;;12422451;28;20505;-83
2021/04/18 21:27:05;;;;;;;14.52;12.20;;;9.50;99.90;;;;;;12420351;28;20061;-83
2021/04/18 21:33:07;;;;;;;14.43;11.40;;;9.60;99.90;;;;;;12414868;28;20131;-83
2021/04/18 21:39:10;;;;;;;18.25;12.25;;;9.60;99.90;;;;;;12390111;28;20046;-82
2021/04/18 21:45:11;;;;;;;16.25;12.80;;;9.40;99.90;;;;;;12397309;28;20042;-82
2021/04/18 21:51:13;;;;;;;18.00;13.90;;;9.40;99.90;;;;;;12393797;28;20177;-82
2021/04/18 21:57:14;;;;;;;20.98;14.05;;;9.30;99.90;;;;;;12400128;28;20141;-83
2021/04/18 22:03:16;;;;;;;16.27;13.13;;;9.40;99.90;;;;;;12402476;28;20129;-82
2021/04/18 22:09:17;;;;;;;15.80;12.57;;;9.50;99.90;;;;;;12405651;28;20062;-82
2021/04/18 22:15:18;;;;;;;20.13;14.55;;;9.30;99.90;;;;;;12389398;28;20054;-82
2021/04/18 22:21:20;;;;;;;23.77;17.52;;;9.30;99.90;;;;;;12382162;28;20096;-83
2021/04/18 22:27:23;;;;;;;22.75;15.75;;;9.40;99.90;;;;;;12391259;28;20350;-82
2021/04/18 22:33:24;;;;;;;27.13;17.88;;;9.30;99.90;;;;;;12392808;28;20510;-83
2021/04/18 22:39:26;;;;;;;30.15;18.42;;;9.40;99.90;;;;;;12387904;28;20046;-84
2021/04/18 22:45:28;;;;;;;16.95;11.20;;;9.40;99.90;;;;;;12382356;28;20038;-83
2021/04/18 22:51:29;;;;;;;13.57;10.75;;;9.20;99.90;;;;;;12406448;28;20129;-83
2021/04/18 22:57:31;;;;;;;16.10;10.18;;;8.90;99.90;;;;;;12407351;28;20046;-83
2021/04/18 23:03:32;;;;;;;12.45;9.13;;;8.80;99.90;;;;;;12400680;28;20077;-83
2021/04/18 23:09:34;;;;;;;18.65;9.23;;;8.70;99.90;;;;;;12389040;28;20058;-83
2021/04/18 23:15:35;;;;;;;12.07;8.88;;;8.70;99.90;;;;;;12386405;28;20603;-83
2021/04/18 23:21:36;;;;;;;12.55;10.07;;;8.60;99.90;;;;;;12396468;28;20141;-82
2021/04/18 23:27:38;;;;;;;11.55;8.50;;;8.60;99.90;;;;;;12408749;28;20133;-83
2021/04/18 23:33:39;;;;;;;10.85;7.90;;;8.70;99.90;;;;;;12383932;28;20042;-83
2021/04/18 23:39:41;;;;;;;13.80;8.38;;;8.60;99.90;;;;;;12379730;28;20073;-83
2021/04/18 23:45:42;;;;;;;11.55;8.00;;;8.70;99.90;;;;;;12386000;28;20132;-83
2021/04/18 23:51:44;;;;;;;11.13;7.88;;;8.70;99.90;;;;;;12384700;28;20395;-83
2021/04/18 23:57:46;;;;;;;10.40;7.03;;;8.80;99.90;;;;;;12376507;28;20042;-83
